METAR Data
IDs: Format: Raw Decoded Include TAF

Data at: 0240 UTC 25 Jan 2020

PADU 250156Z VRB06KT 10SM OVC035 M02/M07 A2971 RMK AO2 SLP065 T10171067
PADU 250056Z 10009KT 10SM OVC035 M02/M07 A2971 RMK AO2 SLP066 T10171067
PADU 242356Z 07008KT 10SM OVC032 M02/M07 A2972 RMK AO2 SNB17E33 SLP068 P0000 60000 T10171067 11011 21017 58005
PADU 242256Z 09007KT 10SM OVC032 M02/M07 A2973 RMK AO2 SNB38E50 SLP071 P0000 T10171067
PADU 242156Z 09015KT 10SM BKN032 OVC045 M01/M07 A2973 RMK AO2 SLP072 T10111067
PADU 242056Z 09011KT 10SM BKN035 OVC045 M02/M06 A2973 RMK AO2 SLP073 T10171061 50002
PADU 241956Z 07007KT 10SM BKN035 OVC045 M02/M07 A2974 RMK AO2 SLP074 T10171067
PADU 241856Z 08011KT 10SM BKN030 OVC045 M01/M07 A2973 RMK AO2 SLP072 T10111067
PADU 241756Z 09014KT 10SM OVC032 M01/M06 A2973 RMK AO2 SLP071 T10111056 11011 21017 58004
PADU 241656Z 08015KT 10SM BKN034 M02/M07 A2973 RMK AO2 SLP072 T10171067
PADU 241556Z 08014KT 10SM OVC032 M02/M07 A2974 RMK AO2 SLP075 T10171067
PADU 241551Z 08015KT 10SM OVC032 M01/M06 A2974 RMK AO2
PADU 241456Z AUTO 10014KT 10SM OVC027 M02/M06 A2975 RMK AO2 SLP078 T10171061 58012 FZRANO
PADU 241356Z AUTO 09017KT 10SM OVC029 M02/M06 A2976 RMK AO2 SLP082 T10171061 FZRANO
PADU 241321Z AUTO 09017KT 10SM OVC029 M02/M06 A2977 RMK AO2 FZRANO
PADU 241256Z AUTO 10017G23KT 10SM BKN031 M02/M07 A2978 RMK AO2 SLP087 T10171067 FZRANO
PADU 241246Z AUTO 10017G25KT 10SM OVC031 M02/M06 A2978 RMK AO2 FZRANO
PADU 241156Z AUTO 08014KT 10SM OVC027 M02/M06 A2978 RMK AO2 PK WND 10027/1131 SLP090 60000 T10171061 11006 21017 58005 FZRANO
PADU 241056Z AUTO 09018G29KT 10SM OVC029 M02/M07 A2978 RMK AO2 PK WND 09029/1050 SLP091 T10171067 FZRANO
PADU 240956Z AUTO 10013G26KT 10SM OVC029 M02/M07 A2980 RMK AO2 PK WND 10028/0913 SLP095 T10171067 FZRANO
PADU 240942Z AUTO 10013G20KT 10SM OVC031 M02/M06 A2980 RMK AO2 PK WND 10028/0913 FZRANO
PADU 240856Z AUTO 07008KT 10SM OVC029 M02/M06 A2980 RMK AO2 SLP095 60000 T10171056 400111050 58003 FZRANO
PADU 240756Z AUTO 08011KT 10SM OVC026 M02/M06 A2981 RMK AO2 SLP099 T10171061 FZRANO
PADU 240708Z AUTO 09014KT 10SM OVC028 M01/M06 A2981 RMK AO2 FZRANO
PADU 240656Z AUTO 09015KT 10SM OVC030 M01/M06 A2981 RMK AO2 UPE07 SLP098 P0000 T10061056 FZRANO
PADU 240556Z AUTO 08014KT 10SM UP FEW027 OVC035 M01/M05 A2981 RMK AO2 PK WND 09029/0513 UPB00E25B49SNE00B32E49 SLP098 P0000 60000 T10061050 10011 21006 55003 FZRANO
PADU 240456Z AUTO 09019G23KT 10SM -SN FEW029 BKN038 OVC046 00/M04 A2980 RMK AO2 UPB30E50SNB50 SLP097 P0000 T00001044 FZRANO
PADU 240436Z AUTO 10016G22KT 10SM UP FEW029 SCT034 OVC048 00/M04 A2981 RMK AO2 UPB30 P0000 FZRANO
PADU 240356Z 11015G22KT 10SM BKN027 OVC035 00/M04 A2981 RMK AO2 SNE52 SLP099 P0000 T00001044
PADU 240256Z 09015G22KT 10SM -SN SCT025 OVC035 00/M04 A2981 RMK AO2 PK WND 09026/0229 SLP101 OBS PK WND 06032/0209 P0000 60000 T00001044 53001
PADU 240156Z 08020G24KT 10SM -SN SCT025 OVC035 01/M03 A2981 RMK AO2 SLP099 OBS PK WND 08028/0147 P0000 T00061033
PADU 240154Z 08019G24KT 7SM -SN SCT025 OVC035 01/M03 A2981 RMK AO2 OBS PK WND 08028/0147 P0000
PADU 240056Z 10015KT 10SM -SN BKN025 OVC035 01/M03 A2981 RMK AO2 RAE05B53E56UPB05E10SNB21 SLP100 P0000 T00061033
PADU 232356Z 08012G18KT 8SM -RA OVC035 01/M05 A2983 RMK AO2 UPB2257E2258RAB50 SLP106 VIS NE 4 P0000 60000 T00111050 10011 20000 58012
PADU 232256Z 10011G22KT 10SM OVC040 01/M04 A2984 RMK AO2 SLP110 T00111044
PADU 232156Z 11011KT 10SM OVC040 01/M06 A2985 RMK AO2 SLP113 T00111061
PADU 232056Z 10009G17KT 10SM BKN040 BKN050 01/M07 A2986 RMK AO2 SLP117 T00061067 58005
PADU 231956Z 11009KT 10SM SCT035 BKN050 BKN100 01/M07 A2987 RMK AO2 SLP120 T00061072
PADU 231856Z 10009KT 10SM SCT035 BKN050 00/M07 A2988 RMK AO2 SLP122 T00001067
PADU 231756Z 10012KT 10SM CLR 00/M09 A2988 RMK AO2 SLP123 T00001089 10000 21039 56014
PADU 231656Z 08011KT 10SM BKN041 00/M07 A2989 RMK AO2 SLP126 T00001067
PADU 231556Z 09010G17KT 10SM BKN037 00/M07 A2990 RMK AO2 SLP129 T00001072
PADU 231456Z AUTO 09010KT 050V110 10SM FEW039 00/M07 A2992 RMK AO2 SLP136 T00001072 56014 FZRANO